sensor_id;sensor_type;location;lat;lon;timestamp;temperature;humidity
6641;DHT22;3356;49.360;8.266;2022-09-09T00:01:06;17.00;99.90
6641;DHT22;3356;49.360;8.266;2022-09-09T00:03:19;17.00;99.90
6641;DHT22;3356;49.360;8.266;2022-09-09T00:05:27;17.00;99.90
6641;DHT22;3356;49.360;8.266;2022-09-09T00:07:47;17.00;99.90
6641;DHT22;3356;49.360;8.266;2022-09-09T00:12:22;17.00;99.90
6641;DHT22;3356;49.360;8.266;2022-09-09T00:14:56;17.00;99.90
6641;DHT22;3356;49.360;8.266;2022-09-09T00:17:14;17.00;99.90
6641;DHT22;3356;49.360;8.266;2022-09-09T00:19:41;17.10;99.90
6641;DHT22;3356;49.360;8.266;2022-09-09T00:22:08;17.00;99.90
6641;DHT22;3356;49.360;8.266;2022-09-09T00:24:27;17.10;99.90
6641;DHT22;3356;49.360;8.266;2022-09-09T00:26:47;17.10;99.90
6641;DHT22;3356;49.360;8.266;2022-09-09T00:31:18;17.10;99.90
6641;DHT22;3356;49.360;8.266;2022-09-09T00:33:24;17.10;99.90
6641;DHT22;3356;49.360;8.266;2022-09-09T00:35:36;17.00;99.90
6641;DHT22;3356;49.360;8.266;2022-09-09T00:37:44;17.00;99.90
6641;DHT22;3356;49.360;8.266;2022-09-09T00:39:49;17.10;99.90
6641;DHT22;3356;49.360;8.266;2022-09-09T00:42:15;17.00;99.90
6641;DHT22;3356;49.360;8.266;2022-09-09T00:44:33;17.10;99.90
6641;DHT22;3356;49.360;8.266;2022-09-09T00:46:44;17.10;99.90
6641;DHT22;3356;49.360;8.266;2022-09-09T00:51:17;17.00;99.90
6641;DHT22;3356;49.360;8.266;2022-09-09T00:53:30;17.00;99.90
6641;DHT22;3356;49.360;8.266;2022-09-09T00:56:12;16.90;99.90
6641;DHT22;3356;49.360;8.266;2022-09-09T00:58:17;16.90;99.90
6641;DHT22;3356;49.360;8.266;2022-09-09T01:00:20;16.90;99.90
6641;DHT22;3356;49.360;8.266;2022-09-09T01:02:32;16.90;99.90
6641;DHT22;3356;49.360;8.266;2022-09-09T01:04:37;16.90;99.90
6641;DHT22;3356;49.360;8.266;2022-09-09T01:06:43;16.80;99.90
6641;DHT22;3356;49.360;8.266;2022-09-09T01:09:05;16.70;99.90
6641;DHT22;3356;49.360;8.266;2022-09-09T01:11:22;16.70;99.90
6641;DHT22;3356;49.360;8.266;2022-09-09T01:13:32;16.70;99.90
6641;DHT22;3356;49.360;8.266;2022-09-09T01:15:48;16.80;99.90
6641;DHT22;3356;49.360;8.266;2022-09-09T01:17:52;16.70;99.90
6641;DHT22;3356;49.360;8.266;2022-09-09T01:20:14;16.70;99.90
6641;DHT22;3356;49.360;8.266;2022-09-09T01:25:25;16.80;99.90
6641;DHT22;3356;49.360;8.266;2022-09-09T01:27:39;16.70;99.90
6641;DHT22;3356;49.360;8.266;2022-09-09T01:29:43;16.60;99.90
6641;DHT22;3356;49.360;8.266;2022-09-09T01:31:59;16.70;99.90
6641;DHT22;3356;49.360;8.266;2022-09-09T01:34:04;16.70;99.90
6641;DHT22;3356;49.360;8.266;2022-09-09T01:36:35;16.70;99.90
6641;DHT22;3356;49.360;8.266;2022-09-09T01:38:42;16.80;99.90
6641;DHT22;3356;49.360;8.266;2022-09-09T01:40:49;16.80;99.90
6641;DHT22;3356;49.360;8.266;2022-09-09T01:42:58;16.80;99.90
6641;DHT22;3356;49.360;8.266;2022-09-09T01:45:01;16.80;99.90
6641;DHT22;3356;49.360;8.266;2022-09-09T01:47:07;16.80;99.90
6641;DHT22;3356;49.360;8.266;2022-09-09T01:49:20;16.80;99.90
6641;DHT22;3356;49.360;8.266;2022-09-09T01:51:25;16.80;99.90
6641;DHT22;3356;49.360;8.266;2022-09-09T01:53:27;16.80;99.90
6641;DHT22;3356;49.360;8.266;2022-09-09T01:55:42;16.70;99.90
6641;DHT22;3356;49.360;8.266;2022-09-09T01:58:16;16.70;99.90
6641;DHT22;3356;49.360;8.266;2022-09-09T02:00:25;16.70;99.90
6641;DHT22;3356;49.360;8.266;2022-09-09T02:03:08;16.70;99.90
6641;DHT22;3356;49.360;8.266;2022-09-09T02:05:40;16.70;99.90
6641;DHT22;3356;49.360;8.266;2022-09-09T02:08:06;16.70;99.90
6641;DHT22;3356;49.360;8.266;2022-09-09T02:10:28;16.70;99.90
6641;DHT22;3356;49.360;8.266;2022-09-09T02:12:55;16.70;99.90
6641;DHT22;3356;49.360;8.266;2022-09-09T02:15:07;16.70;99.90
6641;DHT22;3356;49.360;8.266;2022-09-09T02:17:27;16.60;99.90
6641;DHT22;3356;49.360;8.266;2022-09-09T02:19:49;16.70;99.90
6641;DHT22;3356;49.360;8.266;2022-09-09T02:22:04;16.70;99.90
6641;DHT22;3356;49.360;8.266;2022-09-09T02:24:10;16.70;99.90
6641;DHT22;3356;49.360;8.266;2022-09-09T02:26:22;16.70;99.90
6641;DHT22;3356;49.360;8.266;2022-09-09T02:28:34;16.60;99.90
6641;DHT22;3356;49.360;8.266;2022-09-09T02:30:37;16.60;99.90
6641;DHT22;3356;49.360;8.266;2022-09-09T02:32:43;16.60;99.90
6641;DHT22;3356;49.360;8.266;2022-09-09T02:34:55;16.60;99.90
6641;DHT22;3356;49.360;8.266;2022-09-09T02:36:59;16.60;99.90
6641;DHT22;3356;49.360;8.266;2022-09-09T02:39:03;16.60;99.90
6641;DHT22;3356;49.360;8.266;2022-09-09T02:41:09;16.50;99.90
6641;DHT22;3356;49.360;8.266;2022-09-09T02:43:10;16.50;99.90
6641;DHT22;3356;49.360;8.266;2022-09-09T02:45:15;16.60;99.90
6641;DHT22;3356;49.360;8.266;2022-09-09T02:47:26;16.60;99.90
6641;DHT22;3356;49.360;8.266;2022-09-09T02:52:07;16.60;99.90
6641;DHT22;3356;49.360;8.266;2022-09-09T02:54:32;16.60;99.90
6641;DHT22;3356;49.360;8.266;2022-09-09T02:56:41;16.60;99.90
6641;DHT22;3356;49.360;8.266;2022-09-09T02:58:45;16.50;99.90
6641;DHT22;3356;49.360;8.266;2022-09-09T03:00:49;16.50;99.90
6641;DHT22;3356;49.360;8.266;2022-09-09T03:02:50;16.40;99.90
6641;DHT22;3356;49.360;8.266;2022-09-09T03:04:52;16.40;99.90
6641;DHT22;3356;49.360;8.266;2022-09-09T03:07:00;16.30;99.90
6641;DHT22;3356;49.360;8.266;2022-09-09T03:09:01;16.30;99.90
6641;DHT22;3356;49.360;8.266;2022-09-09T03:11:04;16.30;99.90
6641;DHT22;3356;49.360;8.266;2022-09-09T03:13:08;16.20;99.90
6641;DHT22;3356;49.360;8.266;2022-09-09T03:15:13;16.20;99.90
6641;DHT22;3356;49.360;8.266;2022-09-09T03:17:15;16.20;99.90
6641;DHT22;3356;49.360;8.266;2022-09-09T03:19:24;16.20;99.90
6641;DHT22;3356;49.360;8.266;2022-09-09T03:21:26;16.20;99.90
6641;DHT22;3356;49.360;8.266;2022-09-09T03:23:28;16.20;99.90
6641;DHT22;3356;49.360;8.266;2022-09-09T03:25:32;16.30;99.90
6641;DHT22;3356;49.360;8.266;2022-09-09T03:27:34;16.30;99.90
6641;DHT22;3356;49.360;8.266;2022-09-09T03:29:37;16.30;99.90
6641;DHT22;3356;49.360;8.266;2022-09-09T03:31:41;16.30;99.90
6641;DHT22;3356;49.360;8.266;2022-09-09T03:33:44;16.30;99.90
6641;DHT22;3356;49.360;8.266;2022-09-09T03:35:48;16.30;99.90
6641;DHT22;3356;49.360;8.266;2022-09-09T03:37:50;16.30;99.90
6641;DHT22;3356;49.360;8.266;2022-09-09T03:39:51;16.20;99.90
6641;DHT22;3356;49.360;8.266;2022-09-09T03:41:55;16.30;99.90
6641;DHT22;3356;49.360;8.266;2022-09-09T03:43:56;16.30;99.90
6641;DHT22;3356;49.360;8.266;2022-09-09T03:45:59;16.30;99.90
6641;DHT22;3356;49.360;8.266;2022-09-09T03:48:02;16.30;99.90
6641;DHT22;3356;49.360;8.266;2022-09-09T03:50:06;16.30;99.90
6641;DHT22;3356;49.360;8.266;2022-09-09T03:52:10;16.30;99.90
6641;DHT22;3356;49.360;8.266;2022-09-09T03:54:11;16.20;99.90
6641;DHT22;3356;49.360;8.266;2022-09-09T03:56:13;14.60;99.90
6641;DHT22;3356;49.360;8.266;2022-09-09T03:58:15;16.10;99.90
6641;DHT22;3356;49.360;8.266;2022-09-09T04:00:17;16.20;99.90
6641;DHT22;3356;49.360;8.266;2022-09-09T04:02:23;16.20;99.90
6641;DHT22;3356;49.360;8.266;2022-09-09T04:04:24;16.30;99.90
6641;DHT22;3356;49.360;8.266;2022-09-09T04:06:27;16.30;99.90
6641;DHT22;3356;49.360;8.266;2022-09-09T04:08:29;16.30;99.90
6641;DHT22;3356;49.360;8.266;2022-09-09T04:10:34;16.30;99.90
6641;DHT22;3356;49.360;8.266;2022-09-09T04:12:37;16.30;99.90
6641;DHT22;3356;49.360;8.266;2022-09-09T04:14:38;16.30;99.90
6641;DHT22;3356;49.360;8.266;2022-09-09T04:16:41;16.30;99.90
6641;DHT22;3356;49.360;8.266;2022-09-09T04:18:45;16.30;99.90
6641;DHT22;3356;49.360;8.266;2022-09-09T04:20:50;16.30;99.90
6641;DHT22;3356;49.360;8.266;2022-09-09T04:22:54;16.30;99.90
6641;DHT22;3356;49.360;8.266;2022-09-09T04:24:56;16.30;99.90
6641;DHT22;3356;49.360;8.266;2022-09-09T04:26:57;16.30;99.90
6641;DHT22;3356;49.360;8.266;2022-09-09T04:29:00;16.30;99.90
6641;DHT22;3356;49.360;8.266;2022-09-09T04:31:15;16.30;99.90
6641;DHT22;3356;49.360;8.266;2022-09-09T04:33:20;16.30;99.90
6641;DHT22;3356;49.360;8.266;2022-09-09T04:35:23;16.30;99.90
6641;DHT22;3356;49.360;8.266;2022-09-09T04:37:24;16.30;99.90
6641;DHT22;3356;49.360;8.266;2022-09-09T04:39:26;16.30;99.90
6641;DHT22;3356;49.360;8.266;2022-09-09T04:41:27;16.30;99.90
6641;DHT22;3356;49.360;8.266;2022-09-09T04:43:29;16.30;99.90
6641;DHT22;3356;49.360;8.266;2022-09-09T04:45:31;16.20;99.90
6641;DHT22;3356;49.360;8.266;2022-09-09T04:47:33;16.20;99.90
6641;DHT22;3356;49.360;8.266;2022-09-09T04:49:37;16.20;99.90
6641;DHT22;3356;49.360;8.266;2022-09-09T04:51:39;16.20;99.90
6641;DHT22;3356;49.360;8.266;2022-09-09T04:53:40;16.20;99.90
6641;DHT22;3356;49.360;8.266;2022-09-09T04:55:42;16.20;99.90
6641;DHT22;3356;49.360;8.266;2022-09-09T04:57:43;16.30;99.90
6641;DHT22;3356;49.360;8.266;2022-09-09T04:59:46;16.30;99.90
6641;DHT22;3356;49.360;8.266;2022-09-09T05:01:49;16.30;99.90
6641;DHT22;3356;49.360;8.266;2022-09-09T05:03:51;16.30;99.90
6641;DHT22;3356;49.360;8.266;2022-09-09T05:06:03;16.30;99.90
6641;DHT22;3356;49.360;8.266;2022-09-09T05:08:07;16.30;99.90
6641;DHT22;3356;49.360;8.266;2022-09-09T05:10:09;16.30;99.90
6641;DHT22;3356;49.360;8.266;2022-09-09T05:12:11;16.40;99.90
6641;DHT22;3356;49.360;8.266;2022-09-09T05:14:17;16.20;99.90
6641;DHT22;3356;49.360;8.266;2022-09-09T05:16:19;16.20;99.90
6641;DHT22;3356;49.360;8.266;2022-09-09T05:18:21;16.30;99.90
6641;DHT22;3356;49.360;8.266;2022-09-09T05:20:23;16.20;99.90
6641;DHT22;3356;49.360;8.266;2022-09-09T05:22:24;16.30;99.90
6641;DHT22;3356;49.360;8.266;2022-09-09T05:24:28;16.30;99.90
6641;DHT22;3356;49.360;8.266;2022-09-09T05:26:32;16.30;99.90
6641;DHT22;3356;49.360;8.266;2022-09-09T05:28:34;16.30;99.90
6641;DHT22;3356;49.360;8.266;2022-09-09T05:30:36;16.30;99.90
6641;DHT22;3356;49.360;8.266;2022-09-09T05:32:38;16.20;99.90
6641;DHT22;3356;49.360;8.266;2022-09-09T05:34:39;16.20;99.90
6641;DHT22;3356;49.360;8.266;2022-09-09T05:36:40;16.10;99.90
6641;DHT22;3356;49.360;8.266;2022-09-09T05:38:43;16.10;99.90
6641;DHT22;3356;49.360;8.266;2022-09-09T05:40:47;16.10;99.90
6641;DHT22;3356;49.360;8.266;2022-09-09T05:42:50;16.10;99.90
6641;DHT22;3356;49.360;8.266;2022-09-09T05:44:51;16.00;99.90
6641;DHT22;3356;49.360;8.266;2022-09-09T05:46:55;16.00;99.90
6641;DHT22;3356;49.360;8.266;2022-09-09T05:48:58;16.10;99.90
6641;DHT22;3356;49.360;8.266;2022-09-09T05:51:05;16.00;99.90
6641;DHT22;3356;49.360;8.266;2022-09-09T05:53:08;16.10;99.90
6641;DHT22;3356;49.360;8.266;2022-09-09T05:55:09;16.20;99.90
6641;DHT22;3356;49.360;8.266;2022-09-09T05:57:11;16.20;99.90
6641;DHT22;3356;49.360;8.266;2022-09-09T05:59:12;16.20;99.90
6641;DHT22;3356;49.360;8.266;2022-09-09T06:01:15;16.20;99.90
6641;DHT22;3356;49.360;8.266;2022-09-09T06:03:17;16.30;99.90
6641;DHT22;3356;49.360;8.266;2022-09-09T06:05:19;16.50;99.90
6641;DHT22;3356;49.360;8.266;2022-09-09T06:07:21;16.50;99.90
6641;DHT22;3356;49.360;8.266;2022-09-09T06:09:22;16.60;99.90
6641;DHT22;3356;49.360;8.266;2022-09-09T06:11:29;16.60;99.90
6641;DHT22;3356;49.360;8.266;2022-09-09T06:13:33;16.70;99.90
6641;DHT22;3356;49.360;8.266;2022-09-09T06:15:34;16.80;99.90
6641;DHT22;3356;49.360;8.266;2022-09-09T06:17:37;16.80;99.90
6641;DHT22;3356;49.360;8.266;2022-09-09T06:19:39;16.80;99.90
6641;DHT22;3356;49.360;8.266;2022-09-09T06:21:41;16.70;99.90
6641;DHT22;3356;49.360;8.266;2022-09-09T06:23:46;16.70;99.90
6641;DHT22;3356;49.360;8.266;2022-09-09T06:25:48;16.70;99.90
6641;DHT22;3356;49.360;8.266;2022-09-09T06:27:49;16.90;99.90
6641;DHT22;3356;49.360;8.266;2022-09-09T06:29:51;17.00;99.90
6641;DHT22;3356;49.360;8.266;2022-09-09T06:31:52;17.20;99.90
6641;DHT22;3356;49.360;8.266;2022-09-09T06:33:57;17.20;99.90
6641;DHT22;3356;49.360;8.266;2022-09-09T06:35:59;17.30;99.90
6641;DHT22;3356;49.360;8.266;2022-09-09T06:38:00;17.30;99.90
6641;DHT22;3356;49.360;8.266;2022-09-09T06:40:02;17.30;99.90
6641;DHT22;3356;49.360;8.266;2022-09-09T06:42:04;17.40;99.90
6641;DHT22;3356;49.360;8.266;2022-09-09T06:44:20;17.40;99.90
6641;DHT22;3356;49.360;8.266;2022-09-09T06:46:23;17.50;99.90
6641;DHT22;3356;49.360;8.266;2022-09-09T06:48:29;17.70;99.90
6641;DHT22;3356;49.360;8.266;2022-09-09T06:50:30;17.70;99.90
6641;DHT22;3356;49.360;8.266;2022-09-09T06:52:31;17.70;99.90
6641;DHT22;3356;49.360;8.266;2022-09-09T06:54:33;17.70;99.90
6641;DHT22;3356;49.360;8.266;2022-09-09T06:56:41;17.70;99.90
6641;DHT22;3356;49.360;8.266;2022-09-09T06:58:47;17.80;99.90
6641;DHT22;3356;49.360;8.266;2022-09-09T07:01:06;18.00;99.90
6641;DHT22;3356;49.360;8.266;2022-09-09T07:03:10;18.30;99.90
6641;DHT22;3356;49.360;8.266;2022-09-09T07:05:11;18.40;99.90
6641;DHT22;3356;49.360;8.266;2022-09-09T07:07:15;18.60;99.90
6641;DHT22;3356;49.360;8.266;2022-09-09T07:09:16;18.70;99.90
6641;DHT22;3356;49.360;8.266;2022-09-09T07:11:22;18.90;99.90
6641;DHT22;3356;49.360;8.266;2022-09-09T07:13:24;18.80;99.90
6641;DHT22;3356;49.360;8.266;2022-09-09T07:15:27;18.80;99.90
6641;DHT22;3356;49.360;8.266;2022-09-09T07:17:29;18.90;99.90
6641;DHT22;3356;49.360;8.266;2022-09-09T07:19:31;18.90;99.90
6641;DHT22;3356;49.360;8.266;2022-09-09T07:21:33;18.70;99.90
6641;DHT22;3356;49.360;8.266;2022-09-09T07:23:34;18.50;99.90
6641;DHT22;3356;49.360;8.266;2022-09-09T07:25:44;18.50;99.90
6641;DHT22;3356;49.360;8.266;2022-09-09T07:27:46;18.50;99.90
6641;DHT22;3356;49.360;8.266;2022-09-09T07:29:48;18.50;99.90
6641;DHT22;3356;49.360;8.266;2022-09-09T07:31:49;18.50;99.90
6641;DHT22;3356;49.360;8.266;2022-09-09T07:33:56;18.40;99.90
6641;DHT22;3356;49.360;8.266;2022-09-09T07:38:13;18.80;99.90
6641;DHT22;3356;49.360;8.266;2022-09-09T07:40:16;18.80;99.90
6641;DHT22;3356;49.360;8.266;2022-09-09T07:42:17;18.90;99.90
6641;DHT22;3356;49.360;8.266;2022-09-09T07:44:21;19.00;99.90
6641;DHT22;3356;49.360;8.266;2022-09-09T07:46:26;19.00;99.90
6641;DHT22;3356;49.360;8.266;2022-09-09T07:48:28;18.90;99.90
6641;DHT22;3356;49.360;8.266;2022-09-09T07:50:30;18.80;99.90
6641;DHT22;3356;49.360;8.266;2022-09-09T07:52:33;18.80;99.90
6641;DHT22;3356;49.360;8.266;2022-09-09T07:54:37;18.90;99.90
6641;DHT22;3356;49.360;8.266;2022-09-09T07:56:41;18.90;99.90
6641;DHT22;3356;49.360;8.266;2022-09-09T07:58:47;19.00;99.90
6641;DHT22;3356;49.360;8.266;2022-09-09T08:00:48;19.10;99.90
6641;DHT22;3356;49.360;8.266;2022-09-09T08:02:50;19.00;99.90
6641;DHT22;3356;49.360;8.266;2022-09-09T08:04:51;19.10;99.90
6641;DHT22;3356;49.360;8.266;2022-09-09T08:06:56;19.10;99.90
6641;DHT22;3356;49.360;8.266;2022-09-09T08:08:59;19.10;99.90
6641;DHT22;3356;49.360;8.266;2022-09-09T08:11:09;19.10;99.90
6641;DHT22;3356;49.360;8.266;2022-09-09T08:13:10;19.00;99.90
6641;DHT22;3356;49.360;8.266;2022-09-09T08:15:12;19.00;99.90
6641;DHT22;3356;49.360;8.266;2022-09-09T08:17:13;19.20;99.90
6641;DHT22;3356;49.360;8.266;2022-09-09T08:19:15;19.40;99.90
6641;DHT22;3356;49.360;8.266;2022-09-09T08:21:18;19.90;99.90
6641;DHT22;3356;49.360;8.266;2022-09-09T08:23:20;20.40;99.90
6641;DHT22;3356;49.360;8.266;2022-09-09T08:25:22;20.70;99.90
6641;DHT22;3356;49.360;8.266;2022-09-09T08:27:24;20.70;99.90
6641;DHT22;3356;49.360;8.266;2022-09-09T08:29:25;20.30;99.90
6641;DHT22;3356;49.360;8.266;2022-09-09T08:31:31;20.00;99.90
6641;DHT22;3356;49.360;8.266;2022-09-09T08:33:32;20.00;99.90
6641;DHT22;3356;49.360;8.266;2022-09-09T08:35:34;20.20;99.90
6641;DHT22;3356;49.360;8.266;2022-09-09T08:37:36;20.70;99.90
6641;DHT22;3356;49.360;8.266;2022-09-09T08:39:37;20.80;99.90
6641;DHT22;3356;49.360;8.266;2022-09-09T08:48:56;20.50;99.90
6641;DHT22;3356;49.360;8.266;2022-09-09T08:50:59;20.70;99.90
6641;DHT22;3356;49.360;8.266;2022-09-09T08:53:16;20.70;99.90
6641;DHT22;3356;49.360;8.266;2022-09-09T08:55:36;20.70;99.90
6641;DHT22;3356;49.360;8.266;2022-09-09T08:57:38;20.70;99.90
6641;DHT22;3356;49.360;8.266;2022-09-09T08:59:40;21.00;99.90
6641;DHT22;3356;49.360;8.266;2022-09-09T09:01:49;21.40;99.90
6641;DHT22;3356;49.360;8.266;2022-09-09T09:06:27;22.80;99.90
6641;DHT22;3356;49.360;8.266;2022-09-09T09:08:49;23.20;99.90
6641;DHT22;3356;49.360;8.266;2022-09-09T09:10:57;23.50;99.90
6641;DHT22;3356;49.360;8.266;2022-09-09T09:13:02;23.20;99.90
6641;DHT22;3356;49.360;8.266;2022-09-09T09:15:16;23.20;99.90
6641;DHT22;3356;49.360;8.266;2022-09-09T09:17:20;23.00;99.90
6641;DHT22;3356;49.360;8.266;2022-09-09T09:19:26;22.70;99.90
6641;DHT22;3356;49.360;8.266;2022-09-09T09:21:39;22.70;99.90
6641;DHT22;3356;49.360;8.266;2022-09-09T09:23:52;22.50;99.90
6641;DHT22;3356;49.360;8.266;2022-09-09T09:25:59;22.30;99.90
6641;DHT22;3356;49.360;8.266;2022-09-09T09:28:17;21.90;99.90
6641;DHT22;3356;49.360;8.266;2022-09-09T09:30:23;21.80;99.90
6641;DHT22;3356;49.360;8.266;2022-09-09T09:32:30;21.60;99.90
6641;DHT22;3356;49.360;8.266;2022-09-09T09:34:33;21.20;99.90
6641;DHT22;3356;49.360;8.266;2022-09-09T09:36:39;21.00;99.90
6641;DHT22;3356;49.360;8.266;2022-09-09T09:38:56;21.20;99.90
6641;DHT22;3356;49.360;8.266;2022-09-09T09:40:59;21.30;99.90
6641;DHT22;3356;49.360;8.266;2022-09-09T09:43:03;21.60;99.90
6641;DHT22;3356;49.360;8.266;2022-09-09T09:47:25;22.20;99.90
6641;DHT22;3356;49.360;8.266;2022-09-09T09:49:50;22.60;99.90
6641;DHT22;3356;49.360;8.266;2022-09-09T09:51:51;22.60;99.90
6641;DHT22;3356;49.360;8.266;2022-09-09T09:53:53;22.50;99.90
6641;DHT22;3356;49.360;8.266;2022-09-09T09:56:07;22.20;99.90
6641;DHT22;3356;49.360;8.266;2022-09-09T09:58:15;22.20;99.90
6641;DHT22;3356;49.360;8.266;2022-09-09T10:00:19;22.10;99.90
6641;DHT22;3356;49.360;8.266;2022-09-09T10:02:45;22.20;99.90
6641;DHT22;3356;49.360;8.266;2022-09-09T10:05:12;22.60;99.90
6641;DHT22;3356;49.360;8.266;2022-09-09T10:07:18;22.70;99.90
6641;DHT22;3356;49.360;8.266;2022-09-09T10:09:28;22.90;99.90
6641;DHT22;3356;49.360;8.266;2022-09-09T10:11:46;22.80;99.90
6641;DHT22;3356;49.360;8.266;2022-09-09T10:14:18;22.90;99.90
6641;DHT22;3356;49.360;8.266;2022-09-09T10:28:45;22.60;99.90
6641;DHT22;3356;49.360;8.266;2022-09-09T10:31:08;22.50;99.90
6641;DHT22;3356;49.360;8.266;2022-09-09T10:42:26;22.70;99.90
6641;DHT22;3356;49.360;8.266;2022-09-09T10:47:17;22.80;99.90
6641;DHT22;3356;49.360;8.266;2022-09-09T10:56:02;23.20;99.90
6641;DHT22;3356;49.360;8.266;2022-09-09T10:58:05;23.30;99.90
6641;DHT22;3356;49.360;8.266;2022-09-09T11:00:17;23.30;99.90
6641;DHT22;3356;49.360;8.266;2022-09-09T11:02:30;23.60;99.90
6641;DHT22;3356;49.360;8.266;2022-09-09T11:06:54;23.70;99.90
6641;DHT22;3356;49.360;8.266;2022-09-09T11:08:57;23.80;99.90
6641;DHT22;3356;49.360;8.266;2022-09-09T11:11:04;23.80;99.90
6641;DHT22;3356;49.360;8.266;2022-09-09T11:13:17;23.80;99.90
6641;DHT22;3356;49.360;8.266;2022-09-09T11:15:39;23.70;99.90
6641;DHT22;3356;49.360;8.266;2022-09-09T11:17:49;23.40;99.90
6641;DHT22;3356;49.360;8.266;2022-09-09T11:19:51;23.70;99.90
6641;DHT22;3356;49.360;8.266;2022-09-09T11:21:53;23.90;99.90
6641;DHT22;3356;49.360;8.266;2022-09-09T11:24:10;24.10;99.90
6641;DHT22;3356;49.360;8.266;2022-09-09T11:26:21;24.20;99.90
6641;DHT22;3356;49.360;8.266;2022-09-09T11:31:32;24.00;99.90
6641;DHT22;3356;49.360;8.266;2022-09-09T11:34:08;23.90;99.90
6641;DHT22;3356;49.360;8.266;2022-09-09T11:36:30;24.00;99.90
6641;DHT22;3356;49.360;8.266;2022-09-09T11:38:45;24.50;99.90
6641;DHT22;3356;49.360;8.266;2022-09-09T11:40:57;24.50;99.90
6641;DHT22;3356;49.360;8.266;2022-09-09T11:43:23;24.40;99.90
6641;DHT22;3356;49.360;8.266;2022-09-09T11:45:26;24.50;99.90
6641;DHT22;3356;49.360;8.266;2022-09-09T11:47:30;24.30;99.90
6641;DHT22;3356;49.360;8.266;2022-09-09T11:51:38;24.40;99.90
6641;DHT22;3356;49.360;8.266;2022-09-09T11:53:52;24.30;99.10
6641;DHT22;3356;49.360;8.266;2022-09-09T11:56:05;24.50;98.00
6641;DHT22;3356;49.360;8.266;2022-09-09T12:00:34;25.20;97.50
6641;DHT22;3356;49.360;8.266;2022-09-09T12:02:36;25.40;97.00
6641;DHT22;3356;49.360;8.266;2022-09-09T12:06:58;25.10;96.40
6641;DHT22;3356;49.360;8.266;2022-09-09T12:09:23;24.70;96.60
6641;DHT22;3356;49.360;8.266;2022-09-09T12:11:28;24.80;97.10
6641;DHT22;3356;49.360;8.266;2022-09-09T12:13:30;24.50;97.10
6641;DHT22;3356;49.360;8.266;2022-09-09T12:15:32;24.50;97.60
6641;DHT22;3356;49.360;8.266;2022-09-09T12:17:44;24.50;97.00
6641;DHT22;3356;49.360;8.266;2022-09-09T12:19:47;24.30;97.00
6641;DHT22;3356;49.360;8.266;2022-09-09T12:21:54;24.30;96.50
6641;DHT22;3356;49.360;8.266;2022-09-09T12:24:11;24.30;96.80
6641;DHT22;3356;49.360;8.266;2022-09-09T12:26:25;24.20;97.50
6641;DHT22;3356;49.360;8.266;2022-09-09T12:33:37;23.90;97.90
6641;DHT22;3356;49.360;8.266;2022-09-09T12:35:42;23.70;97.90
6641;DHT22;3356;49.360;8.266;2022-09-09T12:37:57;24.00;99.40
6641;DHT22;3356;49.360;8.266;2022-09-09T12:40:02;24.20;97.50
6641;DHT22;3356;49.360;8.266;2022-09-09T12:42:03;24.20;97.20
6641;DHT22;3356;49.360;8.266;2022-09-09T12:44:06;24.40;96.60
6641;DHT22;3356;49.360;8.266;2022-09-09T12:46:18;24.50;97.40
6641;DHT22;3356;49.360;8.266;2022-09-09T12:48:27;24.50;96.20
6641;DHT22;3356;49.360;8.266;2022-09-09T12:50:32;24.40;96.40
6641;DHT22;3356;49.360;8.266;2022-09-09T12:52:35;24.10;96.20
6641;DHT22;3356;49.360;8.266;2022-09-09T12:54:44;24.40;96.70
6641;DHT22;3356;49.360;8.266;2022-09-09T12:56:48;24.50;95.90
6641;DHT22;3356;49.360;8.266;2022-09-09T12:58:52;24.30;96.10
6641;DHT22;3356;49.360;8.266;2022-09-09T13:00:56;24.30;96.40
6641;DHT22;3356;49.360;8.266;2022-09-09T13:03:00;24.20;96.70
6641;DHT22;3356;49.360;8.266;2022-09-09T13:05:16;24.10;97.90
6641;DHT22;3356;49.360;8.266;2022-09-09T13:07:19;24.00;97.20
6641;DHT22;3356;49.360;8.266;2022-09-09T13:09:21;23.80;98.10
6641;DHT22;3356;49.360;8.266;2022-09-09T13:11:29;23.90;96.50
6641;DHT22;3356;49.360;8.266;2022-09-09T13:13:39;23.90;98.00
6641;DHT22;3356;49.360;8.266;2022-09-09T13:15:51;23.70;96.10
6641;DHT22;3356;49.360;8.266;2022-09-09T13:17:59;23.60;95.40
6641;DHT22;3356;49.360;8.266;2022-09-09T13:20:02;23.50;97.00
6641;DHT22;3356;49.360;8.266;2022-09-09T13:22:30;23.40;95.30
6641;DHT22;3356;49.360;8.266;2022-09-09T13:24:34;23.20;95.90
6641;DHT22;3356;49.360;8.266;2022-09-09T13:26:35;23.20;95.90
6641;DHT22;3356;49.360;8.266;2022-09-09T13:28:37;23.10;96.60
6641;DHT22;3356;49.360;8.266;2022-09-09T13:30:38;23.20;96.30
6641;DHT22;3356;49.360;8.266;2022-09-09T13:32:43;23.20;96.30
6641;DHT22;3356;49.360;8.266;2022-09-09T13:34:55;23.20;96.60
6641;DHT22;3356;49.360;8.266;2022-09-09T13:37:00;23.20;97.00
6641;DHT22;3356;49.360;8.266;2022-09-09T13:39:16;23.30;96.30
6641;DHT22;3356;49.360;8.266;2022-09-09T13:43:44;23.30;97.00
6641;DHT22;3356;49.360;8.266;2022-09-09T13:45:56;23.20;97.10
6641;DHT22;3356;49.360;8.266;2022-09-09T13:48:08;23.20;96.50
6641;DHT22;3356;49.360;8.266;2022-09-09T13:50:20;23.30;97.10
6641;DHT22;3356;49.360;8.266;2022-09-09T13:52:22;23.20;96.30
6641;DHT22;3356;49.360;8.266;2022-09-09T13:54:24;23.30;96.30
6641;DHT22;3356;49.360;8.266;2022-09-09T13:56:25;23.00;95.90
6641;DHT22;3356;49.360;8.266;2022-09-09T13:58:27;23.00;96.70
6641;DHT22;3356;49.360;8.266;2022-09-09T14:00:32;22.90;96.80
6641;DHT22;3356;49.360;8.266;2022-09-09T14:02:33;23.00;97.20
6641;DHT22;3356;49.360;8.266;2022-09-09T14:04:34;23.10;97.60
6641;DHT22;3356;49.360;8.266;2022-09-09T14:06:36;23.40;97.40
6641;DHT22;3356;49.360;8.266;2022-09-09T14:08:40;23.40;96.40
6641;DHT22;3356;49.360;8.266;2022-09-09T14:10:41;23.40;96.70
6641;DHT22;3356;49.360;8.266;2022-09-09T14:12:42;23.40;96.60
6641;DHT22;3356;49.360;8.266;2022-09-09T14:14:43;23.50;97.40
6641;DHT22;3356;49.360;8.266;2022-09-09T14:16:44;23.50;97.30
6641;DHT22;3356;49.360;8.266;2022-09-09T14:18:46;23.30;96.90
6641;DHT22;3356;49.360;8.266;2022-09-09T14:20:47;23.20;97.10
6641;DHT22;3356;49.360;8.266;2022-09-09T14:22:48;23.10;97.20
6641;DHT22;3356;49.360;8.266;2022-09-09T14:24:50;23.10;98.20
6641;DHT22;3356;49.360;8.266;2022-09-09T14:26:52;23.10;99.10
6641;DHT22;3356;49.360;8.266;2022-09-09T14:28:53;23.00;99.90
6641;DHT22;3356;49.360;8.266;2022-09-09T14:30:54;22.90;99.90
6641;DHT22;3356;49.360;8.266;2022-09-09T14:32:55;22.90;99.90
6641;DHT22;3356;49.360;8.266;2022-09-09T14:34:56;22.80;99.90
6641;DHT22;3356;49.360;8.266;2022-09-09T14:36:57;22.50;99.90
6641;DHT22;3356;49.360;8.266;2022-09-09T14:38:59;22.40;99.90
6641;DHT22;3356;49.360;8.266;2022-09-09T14:41:00;22.50;99.90
6641;DHT22;3356;49.360;8.266;2022-09-09T14:43:04;22.30;99.90
6641;DHT22;3356;49.360;8.266;2022-09-09T14:45:06;22.20;99.90
6641;DHT22;3356;49.360;8.266;2022-09-09T14:47:08;21.80;99.90
6641;DHT22;3356;49.360;8.266;2022-09-09T14:49:09;21.60;99.90
6641;DHT22;3356;49.360;8.266;2022-09-09T14:51:16;21.40;99.90
6641;DHT22;3356;49.360;8.266;2022-09-09T14:53:18;21.30;99.90
6641;DHT22;3356;49.360;8.266;2022-09-09T14:55:19;21.40;99.90
6641;DHT22;3356;49.360;8.266;2022-09-09T14:57:20;19.60;99.90
6641;DHT22;3356;49.360;8.266;2022-09-09T14:59:21;21.00;99.90
6641;DHT22;3356;49.360;8.266;2022-09-09T15:01:23;21.10;99.90
6641;DHT22;3356;49.360;8.266;2022-09-09T15:03:25;21.10;99.90
6641;DHT22;3356;49.360;8.266;2022-09-09T15:05:26;20.90;99.90